Huddy, Kentucky
Current Conditions -  °F | °C
As of 2:35 AM on Wednesday 26 Nov 2014 (Local Time) from KPBX Reporting Station
Clear Clear  
Wind Chill: 35°   Ceiling: Unl
Heat Index: 39°   Visibility: 10mi
Dew Point: 29°   Wind: 6mph
Humidity: 66%   Direction: 10°N
Pressure: 30.01"   Gusts: NA
Location:  37.6°N, 82.28°W
Report Text: KPBX 260735Z AUTO 01005KT 10SM CLR 04/M02 A3001 RMK AO2 T00401019
Loading
Personal Weather Stations






























Interactive Weather Map New forecast layout! Learn more

10-Day Weather Forecast

Advertisements
Track Severe Weather on mobile